sensor_id;sensor_type;location;lat;lon;timestamp;P1;durP1;ratioP1;P2;durP2;ratioP2
22837;SDS011;11585;51.450;-0.240;2023-06-14T00:01:33;7.15;;;3.13;;
22837;SDS011;11585;51.450;-0.240;2023-06-14T00:04:00;32.55;;;4.35;;
22837;SDS011;11585;51.450;-0.240;2023-06-14T00:06:26;7.22;;;3.28;;
22837;SDS011;11585;51.450;-0.240;2023-06-14T00:08:53;8.18;;;3.28;;
22837;SDS011;11585;51.450;-0.240;2023-06-14T00:18:03;9.18;;;3.53;;
22837;SDS011;11585;51.450;-0.240;2023-06-14T00:23:35;9.57;;;3.50;;
22837;SDS011;11585;51.450;-0.240;2023-06-14T00:26:00;7.07;;;3.65;;
22837;SDS011;11585;51.450;-0.240;2023-06-14T00:28:26;115.28;;;9.60;;
22837;SDS011;11585;51.450;-0.240;2023-06-14T00:33:36;12.27;;;3.92;;
22837;SDS011;11585;51.450;-0.240;2023-06-14T00:36:02;8.57;;;2.92;;
22837;SDS011;11585;51.450;-0.240;2023-06-14T00:38:28;7.93;;;3.08;;
22837;SDS011;11585;51.450;-0.240;2023-06-14T00:43:39;8.68;;;2.88;;
22837;SDS011;11585;51.450;-0.240;2023-06-14T00:46:05;10.80;;;3.20;;
22837;SDS011;11585;51.450;-0.240;2023-06-14T00:48:30;4.20;;;2.63;;
22837;SDS011;11585;51.450;-0.240;2023-06-14T00:54:19;26.83;;;3.95;;
22837;SDS011;11585;51.450;-0.240;2023-06-14T00:56:45;7.78;;;2.95;;
22837;SDS011;11585;51.450;-0.240;2023-06-14T00:59:10;7.45;;;3.17;;
22837;SDS011;11585;51.450;-0.240;2023-06-14T01:01:36;15.27;;;3.58;;
22837;SDS011;11585;51.450;-0.240;2023-06-14T01:04:03;6.25;;;3.40;;
22837;SDS011;11585;51.450;-0.240;2023-06-14T01:06:45;13.50;;;3.55;;
22837;SDS011;11585;51.450;-0.240;2023-06-14T01:12:17;7.20;;;3.25;;
22837;SDS011;11585;51.450;-0.240;2023-06-14T01:14:54;21.00;;;3.55;;
22837;SDS011;11585;51.450;-0.240;2023-06-14T01:17:22;14.88;;;3.42;;
22837;SDS011;11585;51.450;-0.240;2023-06-14T01:22:54;7.57;;;2.97;;
22837;SDS011;11585;51.450;-0.240;2023-06-14T01:25:20;16.08;;;3.33;;
22837;SDS011;11585;51.450;-0.240;2023-06-14T01:27:51;9.55;;;2.70;;
22837;SDS011;11585;51.450;-0.240;2023-06-14T01:33:26;8.63;;;3.38;;
22837;SDS011;11585;51.450;-0.240;2023-06-14T01:35:53;13.90;;;3.08;;
22837;SDS011;11585;51.450;-0.240;2023-06-14T01:38:20;17.73;;;3.67;;
22837;SDS011;11585;51.450;-0.240;2023-06-14T01:40:48;18.38;;;3.45;;
22837;SDS011;11585;51.450;-0.240;2023-06-14T01:43:16;10.65;;;3.45;;
22837;SDS011;11585;51.450;-0.240;2023-06-14T01:45:43;19.20;;;3.45;;
22837;SDS011;11585;51.450;-0.240;2023-06-14T01:48:11;4.83;;;2.63;;
22837;SDS011;11585;51.450;-0.240;2023-06-14T01:53:23;14.35;;;3.63;;
22837;SDS011;11585;51.450;-0.240;2023-06-14T01:55:49;20.05;;;3.80;;
22837;SDS011;11585;51.450;-0.240;2023-06-14T01:58:15;13.60;;;3.45;;
22837;SDS011;11585;51.450;-0.240;2023-06-14T02:04:06;8.63;;;3.40;;
22837;SDS011;11585;51.450;-0.240;2023-06-14T02:12:38;27.17;;;3.90;;
22837;SDS011;11585;51.450;-0.240;2023-06-14T02:15:03;12.55;;;3.10;;
22837;SDS011;11585;51.450;-0.240;2023-06-14T02:17:30;6.90;;;3.45;;
22837;SDS011;11585;51.450;-0.240;2023-06-14T02:23:18;10.57;;;3.67;;
22837;SDS011;11585;51.450;-0.240;2023-06-14T02:25:44;10.68;;;3.33;;
22837;SDS011;11585;51.450;-0.240;2023-06-14T02:28:11;15.13;;;3.58;;
22837;SDS011;11585;51.450;-0.240;2023-06-14T02:30:37;10.38;;;3.58;;
22837;SDS011;11585;51.450;-0.240;2023-06-14T02:33:04;7.13;;;4.03;;
22837;SDS011;11585;51.450;-0.240;2023-06-14T02:35:30;10.48;;;4.13;;
22837;SDS011;11585;51.450;-0.240;2023-06-14T02:37:55;30.63;;;5.50;;
22837;SDS011;11585;51.450;-0.240;2023-06-14T02:46:28;12.82;;;3.80;;
22837;SDS011;11585;51.450;-0.240;2023-06-14T02:48:56;12.25;;;4.07;;
22837;SDS011;11585;51.450;-0.240;2023-06-14T02:51:23;10.30;;;3.55;;
22837;SDS011;11585;51.450;-0.240;2023-06-14T02:53:49;10.15;;;3.65;;
22837;SDS011;11585;51.450;-0.240;2023-06-14T02:56:14;10.55;;;3.60;;
22837;SDS011;11585;51.450;-0.240;2023-06-14T02:58:42;15.55;;;3.95;;
22837;SDS011;11585;51.450;-0.240;2023-06-14T03:04:32;55.45;;;7.18;;
22837;SDS011;11585;51.450;-0.240;2023-06-14T03:07:02;11.32;;;3.92;;
22837;SDS011;11585;51.450;-0.240;2023-06-14T03:12:39;15.02;;;4.70;;
22837;SDS011;11585;51.450;-0.240;2023-06-14T03:15:05;9.07;;;4.43;;
22837;SDS011;11585;51.450;-0.240;2023-06-14T03:17:31;18.80;;;4.43;;
22837;SDS011;11585;51.450;-0.240;2023-06-14T03:19:59;9.32;;;3.88;;
22837;SDS011;11585;51.450;-0.240;2023-06-14T03:22:25;42.55;;;5.90;;
22837;SDS011;11585;51.450;-0.240;2023-06-14T03:24:51;29.23;;;4.78;;
22837;SDS011;11585;51.450;-0.240;2023-06-14T03:27:19;10.40;;;4.50;;
22837;SDS011;11585;51.450;-0.240;2023-06-14T03:29:44;17.73;;;4.82;;
22837;SDS011;11585;51.450;-0.240;2023-06-14T03:32:10;11.45;;;4.15;;
22837;SDS011;11585;51.450;-0.240;2023-06-14T03:34:36;7.82;;;4.13;;
22837;SDS011;11585;51.450;-0.240;2023-06-14T03:37:03;29.50;;;5.07;;
22837;SDS011;11585;51.450;-0.240;2023-06-14T03:45:59;17.67;;;4.82;;
22837;SDS011;11585;51.450;-0.240;2023-06-14T03:48:25;15.50;;;4.55;;
22837;SDS011;11585;51.450;-0.240;2023-06-14T03:50:52;37.58;;;6.10;;
22837;SDS011;11585;51.450;-0.240;2023-06-14T03:53:19;14.25;;;5.00;;
22837;SDS011;11585;51.450;-0.240;2023-06-14T03:55:48;18.63;;;4.22;;
22837;SDS011;11585;51.450;-0.240;2023-06-14T03:58:14;41.00;;;5.07;;
22837;SDS011;11585;51.450;-0.240;2023-06-14T04:03:27;17.27;;;4.57;;
22837;SDS011;11585;51.450;-0.240;2023-06-14T04:05:54;10.32;;;4.45;;
22837;SDS011;11585;51.450;-0.240;2023-06-14T04:08:21;19.02;;;4.85;;
22837;SDS011;11585;51.450;-0.240;2023-06-14T04:13:35;10.02;;;4.43;;
22837;SDS011;11585;51.450;-0.240;2023-06-14T04:16:02;17.25;;;4.97;;
22837;SDS011;11585;51.450;-0.240;2023-06-14T04:18:28;13.95;;;4.75;;
22837;SDS011;11585;51.450;-0.240;2023-06-14T04:23:39;21.40;;;5.00;;
22837;SDS011;11585;51.450;-0.240;2023-06-14T04:26:08;17.67;;;5.60;;
22837;SDS011;11585;51.450;-0.240;2023-06-14T04:28:35;20.17;;;4.40;;
22837;SDS011;11585;51.450;-0.240;2023-06-14T04:33:36;13.77;;;4.45;;
22837;SDS011;11585;51.450;-0.240;2023-06-14T04:36:11;16.85;;;4.45;;
22837;SDS011;11585;51.450;-0.240;2023-06-14T04:38:38;12.07;;;4.90;;
22837;SDS011;11585;51.450;-0.240;2023-06-14T04:41:05;18.13;;;4.55;;
22837;SDS011;11585;51.450;-0.240;2023-06-14T04:43:31;11.95;;;4.43;;
22837;SDS011;11585;51.450;-0.240;2023-06-14T04:46:02;12.85;;;4.68;;
22837;SDS011;11585;51.450;-0.240;2023-06-14T04:48:30;50.28;;;6.45;;
22837;SDS011;11585;51.450;-0.240;2023-06-14T04:50:58;25.13;;;6.65;;
22837;SDS011;11585;51.450;-0.240;2023-06-14T04:53:24;13.38;;;4.68;;
22837;SDS011;11585;51.450;-0.240;2023-06-14T04:55:53;13.10;;;5.00;;
22837;SDS011;11585;51.450;-0.240;2023-06-14T04:58:19;12.40;;;5.57;;
22837;SDS011;11585;51.450;-0.240;2023-06-14T05:03:30;17.35;;;5.25;;
22837;SDS011;11585;51.450;-0.240;2023-06-14T05:05:56;19.20;;;5.30;;
22837;SDS011;11585;51.450;-0.240;2023-06-14T05:08:21;14.82;;;4.78;;
22837;SDS011;11585;51.450;-0.240;2023-06-14T05:10:53;36.13;;;6.63;;
22837;SDS011;11585;51.450;-0.240;2023-06-14T05:13:18;17.70;;;5.45;;
22837;SDS011;11585;51.450;-0.240;2023-06-14T05:15:44;13.70;;;5.30;;
22837;SDS011;11585;51.450;-0.240;2023-06-14T05:18:13;33.85;;;5.85;;
22837;SDS011;11585;51.450;-0.240;2023-06-14T05:23:27;17.25;;;5.28;;
22837;SDS011;11585;51.450;-0.240;2023-06-14T05:25:52;14.55;;;5.18;;
22837;SDS011;11585;51.450;-0.240;2023-06-14T05:28:18;15.60;;;4.68;;
22837;SDS011;11585;51.450;-0.240;2023-06-14T05:30:44;14.15;;;4.95;;
22837;SDS011;11585;51.450;-0.240;2023-06-14T05:33:10;15.05;;;4.90;;
22837;SDS011;11585;51.450;-0.240;2023-06-14T05:35:35;30.00;;;5.78;;
22837;SDS011;11585;51.450;-0.240;2023-06-14T05:38:02;19.85;;;5.38;;
22837;SDS011;11585;51.450;-0.240;2023-06-14T05:40:28;20.38;;;5.05;;
22837;SDS011;11585;51.450;-0.240;2023-06-14T05:42:54;23.05;;;5.47;;
22837;SDS011;11585;51.450;-0.240;2023-06-14T05:45:20;15.80;;;5.28;;
22837;SDS011;11585;51.450;-0.240;2023-06-14T05:47:45;19.20;;;5.15;;
22837;SDS011;11585;51.450;-0.240;2023-06-14T05:52:57;29.42;;;8.05;;
22837;SDS011;11585;51.450;-0.240;2023-06-14T05:55:23;12.95;;;5.85;;
22837;SDS011;11585;51.450;-0.240;2023-06-14T05:57:48;19.75;;;5.78;;
22837;SDS011;11585;51.450;-0.240;2023-06-14T06:03:01;46.75;;;6.85;;
22837;SDS011;11585;51.450;-0.240;2023-06-14T06:05:26;18.27;;;6.43;;
22837;SDS011;11585;51.450;-0.240;2023-06-14T06:07:52;16.75;;;6.22;;
22837;SDS011;11585;51.450;-0.240;2023-06-14T06:13:04;15.95;;;6.18;;
22837;SDS011;11585;51.450;-0.240;2023-06-14T06:15:30;18.10;;;5.85;;
22837;SDS011;11585;51.450;-0.240;2023-06-14T06:17:56;18.30;;;5.25;;
22837;SDS011;11585;51.450;-0.240;2023-06-14T06:23:06;15.90;;;5.30;;
22837;SDS011;11585;51.450;-0.240;2023-06-14T06:25:33;25.80;;;5.93;;
22837;SDS011;11585;51.450;-0.240;2023-06-14T06:27:59;19.17;;;5.55;;
22837;SDS011;11585;51.450;-0.240;2023-06-14T06:30:25;30.88;;;6.43;;
22837;SDS011;11585;51.450;-0.240;2023-06-14T06:32:51;24.30;;;6.07;;
22837;SDS011;11585;51.450;-0.240;2023-06-14T06:35:18;22.00;;;5.70;;
22837;SDS011;11585;51.450;-0.240;2023-06-14T06:37:44;15.55;;;5.90;;
22837;SDS011;11585;51.450;-0.240;2023-06-14T06:40:10;36.00;;;9.80;;
22837;SDS011;11585;51.450;-0.240;2023-06-14T06:42:37;28.08;;;6.70;;
22837;SDS011;11585;51.450;-0.240;2023-06-14T06:45:03;17.13;;;6.03;;
22837;SDS011;11585;51.450;-0.240;2023-06-14T06:47:29;17.98;;;6.05;;
22837;SDS011;11585;51.450;-0.240;2023-06-14T06:52:58;16.83;;;5.78;;
22837;SDS011;11585;51.450;-0.240;2023-06-14T06:55:24;28.08;;;6.57;;
22837;SDS011;11585;51.450;-0.240;2023-06-14T06:57:50;23.00;;;7.05;;
22837;SDS011;11585;51.450;-0.240;2023-06-14T07:00:17;27.00;;;6.18;;
22837;SDS011;11585;51.450;-0.240;2023-06-14T07:02:44;20.40;;;6.47;;
22837;SDS011;11585;51.450;-0.240;2023-06-14T07:05:10;18.02;;;6.15;;
22837;SDS011;11585;51.450;-0.240;2023-06-14T07:07:38;21.67;;;6.25;;
22837;SDS011;11585;51.450;-0.240;2023-06-14T07:12:49;23.55;;;6.15;;
22837;SDS011;11585;51.450;-0.240;2023-06-14T07:17:43;17.75;;;6.03;;
22837;SDS011;11585;51.450;-0.240;2023-06-14T07:20:10;24.52;;;5.70;;
22837;SDS011;11585;51.450;-0.240;2023-06-14T07:22:37;16.63;;;5.95;;
22837;SDS011;11585;51.450;-0.240;2023-06-14T07:27:33;12.70;;;5.00;;
22837;SDS011;11585;51.450;-0.240;2023-06-14T07:29:59;15.68;;;6.03;;
22837;SDS011;11585;51.450;-0.240;2023-06-14T07:32:25;26.08;;;6.13;;
22837;SDS011;11585;51.450;-0.240;2023-06-14T07:34:51;24.65;;;5.90;;
22837;SDS011;11585;51.450;-0.240;2023-06-14T07:37:16;17.90;;;6.00;;
22837;SDS011;11585;51.450;-0.240;2023-06-14T07:39:44;33.67;;;6.13;;
22837;SDS011;11585;51.450;-0.240;2023-06-14T07:42:10;18.92;;;6.05;;
22837;SDS011;11585;51.450;-0.240;2023-06-14T07:44:35;26.90;;;5.85;;
22837;SDS011;11585;51.450;-0.240;2023-06-14T07:47:01;20.00;;;5.25;;
22837;SDS011;11585;51.450;-0.240;2023-06-14T07:52:12;20.23;;;5.82;;
22837;SDS011;11585;51.450;-0.240;2023-06-14T07:54:38;25.38;;;6.20;;
22837;SDS011;11585;51.450;-0.240;2023-06-14T07:57:06;17.60;;;5.82;;
22837;SDS011;11585;51.450;-0.240;2023-06-14T07:59:32;13.57;;;5.97;;
22837;SDS011;11585;51.450;-0.240;2023-06-14T08:01:58;17.95;;;5.93;;
22837;SDS011;11585;51.450;-0.240;2023-06-14T08:04:23;18.95;;;6.25;;
22837;SDS011;11585;51.450;-0.240;2023-06-14T08:06:50;20.45;;;6.07;;
22837;SDS011;11585;51.450;-0.240;2023-06-14T08:09:18;15.88;;;5.70;;
22837;SDS011;11585;51.450;-0.240;2023-06-14T08:11:44;18.15;;;5.82;;
22837;SDS011;11585;51.450;-0.240;2023-06-14T08:14:10;19.17;;;6.55;;
22837;SDS011;11585;51.450;-0.240;2023-06-14T08:16:36;19.13;;;6.40;;
22837;SDS011;11585;51.450;-0.240;2023-06-14T08:19:04;16.40;;;5.63;;
22837;SDS011;11585;51.450;-0.240;2023-06-14T08:21:30;16.17;;;5.87;;
22837;SDS011;11585;51.450;-0.240;2023-06-14T08:23:58;24.02;;;6.13;;
22837;SDS011;11585;51.450;-0.240;2023-06-14T08:26:24;19.88;;;6.68;;
22837;SDS011;11585;51.450;-0.240;2023-06-14T08:28:59;22.52;;;5.95;;
22837;SDS011;11585;51.450;-0.240;2023-06-14T08:31:25;19.10;;;6.25;;
22837;SDS011;11585;51.450;-0.240;2023-06-14T08:33:52;16.30;;;6.65;;
22837;SDS011;11585;51.450;-0.240;2023-06-14T08:36:18;14.65;;;5.53;;
22837;SDS011;11585;51.450;-0.240;2023-06-14T08:38:43;23.38;;;5.68;;
22837;SDS011;11585;51.450;-0.240;2023-06-14T08:41:11;17.92;;;5.93;;
22837;SDS011;11585;51.450;-0.240;2023-06-14T08:46:04;17.95;;;6.13;;
22837;SDS011;11585;51.450;-0.240;2023-06-14T08:48:33;24.95;;;6.13;;
22837;SDS011;11585;51.450;-0.240;2023-06-14T08:53:55;16.65;;;6.40;;
22837;SDS011;11585;51.450;-0.240;2023-06-14T08:56:23;16.95;;;5.90;;
22837;SDS011;11585;51.450;-0.240;2023-06-14T08:58:59;17.08;;;6.15;;
22837;SDS011;11585;51.450;-0.240;2023-06-14T09:01:28;17.58;;;6.70;;
22837;SDS011;11585;51.450;-0.240;2023-06-14T09:03:59;20.33;;;6.60;;
22837;SDS011;11585;51.450;-0.240;2023-06-14T09:06:25;21.58;;;6.80;;
22837;SDS011;11585;51.450;-0.240;2023-06-14T09:08:54;23.88;;;6.35;;
22837;SDS011;11585;51.450;-0.240;2023-06-14T09:11:22;32.85;;;7.32;;
22837;SDS011;11585;51.450;-0.240;2023-06-14T09:13:52;22.35;;;6.22;;
22837;SDS011;11585;51.450;-0.240;2023-06-14T09:16:18;24.63;;;8.18;;
22837;SDS011;11585;51.450;-0.240;2023-06-14T09:18:44;26.38;;;6.68;;
22837;SDS011;11585;51.450;-0.240;2023-06-14T09:23:48;22.10;;;6.03;;
22837;SDS011;11585;51.450;-0.240;2023-06-14T09:26:17;20.60;;;6.45;;
22837;SDS011;11585;51.450;-0.240;2023-06-14T09:28:49;15.13;;;6.07;;
22837;SDS011;11585;51.450;-0.240;2023-06-14T09:31:16;15.93;;;6.28;;
22837;SDS011;11585;51.450;-0.240;2023-06-14T09:33:43;19.10;;;7.25;;
22837;SDS011;11585;51.450;-0.240;2023-06-14T09:36:23;16.60;;;5.55;;
22837;SDS011;11585;51.450;-0.240;2023-06-14T09:38:58;18.20;;;7.18;;
22837;SDS011;11585;51.450;-0.240;2023-06-14T09:41:38;27.60;;;6.50;;
22837;SDS011;11585;51.450;-0.240;2023-06-14T09:44:06;18.88;;;5.57;;
22837;SDS011;11585;51.450;-0.240;2023-06-14T09:46:33;23.77;;;6.90;;
22837;SDS011;11585;51.450;-0.240;2023-06-14T09:48:59;16.13;;;6.85;;
22837;SDS011;11585;51.450;-0.240;2023-06-14T09:51:26;17.60;;;6.97;;
22837;SDS011;11585;51.450;-0.240;2023-06-14T09:53:53;18.77;;;7.47;;
22837;SDS011;11585;51.450;-0.240;2023-06-14T09:56:29;22.08;;;7.15;;
22837;SDS011;11585;51.450;-0.240;2023-06-14T09:58:58;14.00;;;6.70;;
22837;SDS011;11585;51.450;-0.240;2023-06-14T10:01:25;18.17;;;6.20;;
22837;SDS011;11585;51.450;-0.240;2023-06-14T10:03:55;19.95;;;7.47;;
22837;SDS011;11585;51.450;-0.240;2023-06-14T10:06:26;16.92;;;6.68;;
22837;SDS011;11585;51.450;-0.240;2023-06-14T10:08:53;13.68;;;7.03;;
22837;SDS011;11585;51.450;-0.240;2023-06-14T10:11:22;26.40;;;7.60;;
22837;SDS011;11585;51.450;-0.240;2023-06-14T10:13:49;25.52;;;7.45;;
22837;SDS011;11585;51.450;-0.240;2023-06-14T10:19:13;16.83;;;6.65;;
22837;SDS011;11585;51.450;-0.240;2023-06-14T10:24:44;19.30;;;6.05;;
22837;SDS011;11585;51.450;-0.240;2023-06-14T10:27:13;21.65;;;6.60;;
22837;SDS011;11585;51.450;-0.240;2023-06-14T10:32:27;16.73;;;7.35;;
22837;SDS011;11585;51.450;-0.240;2023-06-14T10:34:56;17.60;;;6.75;;
22837;SDS011;11585;51.450;-0.240;2023-06-14T10:37:23;31.87;;;7.50;;
22837;SDS011;11585;51.450;-0.240;2023-06-14T10:39:49;11.98;;;6.40;;
22837;SDS011;11585;51.450;-0.240;2023-06-14T10:42:16;19.73;;;7.05;;
22837;SDS011;11585;51.450;-0.240;2023-06-14T10:44:45;14.90;;;7.47;;
22837;SDS011;11585;51.450;-0.240;2023-06-14T10:47:20;13.85;;;7.07;;
22837;SDS011;11585;51.450;-0.240;2023-06-14T10:50:12;19.15;;;7.45;;
22837;SDS011;11585;51.450;-0.240;2023-06-14T10:52:41;14.57;;;7.10;;
22837;SDS011;11585;51.450;-0.240;2023-06-14T10:55:11;23.63;;;7.90;;
22837;SDS011;11585;51.450;-0.240;2023-06-14T10:57:43;30.92;;;9.75;;
22837;SDS011;11585;51.450;-0.240;2023-06-14T11:00:11;16.27;;;7.10;;
22837;SDS011;11585;51.450;-0.240;2023-06-14T11:02:51;16.15;;;7.25;;
22837;SDS011;11585;51.450;-0.240;2023-06-14T11:05:51;29.55;;;7.50;;
22837;SDS011;11585;51.450;-0.240;2023-06-14T11:11:29;16.93;;;8.53;;
22837;SDS011;11585;51.450;-0.240;2023-06-14T11:13:58;17.85;;;7.88;;
22837;SDS011;11585;51.450;-0.240;2023-06-14T11:16:30;21.85;;;13.50;;
22837;SDS011;11585;51.450;-0.240;2023-06-14T11:18:58;20.88;;;10.45;;
22837;SDS011;11585;51.450;-0.240;2023-06-14T11:21:28;22.33;;;9.23;;
22837;SDS011;11585;51.450;-0.240;2023-06-14T11:23:56;22.80;;;13.60;;
22837;SDS011;11585;51.450;-0.240;2023-06-14T11:26:29;24.17;;;11.35;;
22837;SDS011;11585;51.450;-0.240;2023-06-14T11:28:57;18.25;;;11.55;;
22837;SDS011;11585;51.450;-0.240;2023-06-14T11:31:24;24.75;;;10.75;;
22837;SDS011;11585;51.450;-0.240;2023-06-14T11:33:55;21.20;;;9.05;;
22837;SDS011;11585;51.450;-0.240;2023-06-14T11:36:30;17.30;;;7.50;;
22837;SDS011;11585;51.450;-0.240;2023-06-14T11:38:59;23.55;;;9.13;;
22837;SDS011;11585;51.450;-0.240;2023-06-14T11:41:25;17.33;;;8.20;;
22837;SDS011;11585;51.450;-0.240;2023-06-14T11:43:54;16.80;;;8.43;;
22837;SDS011;11585;51.450;-0.240;2023-06-14T11:46:22;16.20;;;7.15;;
22837;SDS011;11585;51.450;-0.240;2023-06-14T11:48:51;13.65;;;6.97;;
22837;SDS011;11585;51.450;-0.240;2023-06-14T11:51:17;19.92;;;9.77;;
22837;SDS011;11585;51.450;-0.240;2023-06-14T11:56:14;17.13;;;9.50;;
22837;SDS011;11585;51.450;-0.240;2023-06-14T11:58:42;22.63;;;10.15;;
22837;SDS011;11585;51.450;-0.240;2023-06-14T12:01:08;27.40;;;12.18;;
22837;SDS011;11585;51.450;-0.240;2023-06-14T12:03:34;25.02;;;11.50;;
22837;SDS011;11585;51.450;-0.240;2023-06-14T12:06:04;20.77;;;7.97;;
22837;SDS011;11585;51.450;-0.240;2023-06-14T12:08:35;14.57;;;7.65;;
22837;SDS011;11585;51.450;-0.240;2023-06-14T12:11:11;15.05;;;8.05;;
22837;SDS011;11585;51.450;-0.240;2023-06-14T12:13:39;10.70;;;7.07;;
22837;SDS011;11585;51.450;-0.240;2023-06-14T12:16:08;12.70;;;6.70;;
22837;SDS011;11585;51.450;-0.240;2023-06-14T12:18:37;20.70;;;7.15;;
22837;SDS011;11585;51.450;-0.240;2023-06-14T12:21:05;18.90;;;7.38;;
22837;SDS011;11585;51.450;-0.240;2023-06-14T12:23:44;17.75;;;7.25;;
22837;SDS011;11585;51.450;-0.240;2023-06-14T12:26:15;13.10;;;8.00;;
22837;SDS011;11585;51.450;-0.240;2023-06-14T12:28:43;12.38;;;7.45;;
22837;SDS011;11585;51.450;-0.240;2023-06-14T12:31:10;17.17;;;8.43;;
22837;SDS011;11585;51.450;-0.240;2023-06-14T12:33:37;13.95;;;6.60;;
22837;SDS011;11585;51.450;-0.240;2023-06-14T12:36:04;11.30;;;6.63;;
22837;SDS011;11585;51.450;-0.240;2023-06-14T12:38:31;11.20;;;7.10;;
22837;SDS011;11585;51.450;-0.240;2023-06-14T12:40:57;10.68;;;6.55;;
22837;SDS011;11585;51.450;-0.240;2023-06-14T12:46:08;22.05;;;8.93;;
22837;SDS011;11585;51.450;-0.240;2023-06-14T12:48:33;16.40;;;7.18;;
22837;SDS011;11585;51.450;-0.240;2023-06-14T12:50:59;13.02;;;6.75;;
22837;SDS011;11585;51.450;-0.240;2023-06-14T12:53:26;12.45;;;7.97;;
22837;SDS011;11585;51.450;-0.240;2023-06-14T12:55:51;13.68;;;8.02;;
22837;SDS011;11585;51.450;-0.240;2023-06-14T12:58:17;10.43;;;6.53;;
22837;SDS011;11585;51.450;-0.240;2023-06-14T13:00:44;23.13;;;9.60;;
22837;SDS011;11585;51.450;-0.240;2023-06-14T13:06:22;10.77;;;6.28;;
22837;SDS011;11585;51.450;-0.240;2023-06-14T13:08:49;14.93;;;7.80;;
22837;SDS011;11585;51.450;-0.240;2023-06-14T13:11:28;12.40;;;6.57;;
22837;SDS011;11585;51.450;-0.240;2023-06-14T13:13:54;10.68;;;6.57;;
22837;SDS011;11585;51.450;-0.240;2023-06-14T13:16:20;25.42;;;7.80;;
22837;SDS011;11585;51.450;-0.240;2023-06-14T13:18:46;17.23;;;7.30;;
22837;SDS011;11585;51.450;-0.240;2023-06-14T13:21:11;14.00;;;7.60;;
22837;SDS011;11585;51.450;-0.240;2023-06-14T13:23:39;23.58;;;7.80;;
22837;SDS011;11585;51.450;-0.240;2023-06-14T13:26:05;18.48;;;7.35;;
22837;SDS011;11585;51.450;-0.240;2023-06-14T13:28:30;12.82;;;6.95;;
22837;SDS011;11585;51.450;-0.240;2023-06-14T13:31:05;15.50;;;6.45;;
22837;SDS011;11585;51.450;-0.240;2023-06-14T13:33:34;23.10;;;8.15;;
22837;SDS011;11585;51.450;-0.240;2023-06-14T13:36:00;20.50;;;7.38;;
22837;SDS011;11585;51.450;-0.240;2023-06-14T13:38:25;16.30;;;7.70;;
22837;SDS011;11585;51.450;-0.240;2023-06-14T13:40:51;17.45;;;7.32;;
22837;SDS011;11585;51.450;-0.240;2023-06-14T13:43:17;11.73;;;6.20;;
22837;SDS011;11585;51.450;-0.240;2023-06-14T13:45:48;20.33;;;8.98;;
22837;SDS011;11585;51.450;-0.240;2023-06-14T13:48:14;16.48;;;7.28;;
22837;SDS011;11585;51.450;-0.240;2023-06-14T13:56:11;17.27;;;9.75;;
22837;SDS011;11585;51.450;-0.240;2023-06-14T13:58:39;27.25;;;7.13;;
22837;SDS011;11585;51.450;-0.240;2023-06-14T14:06:23;12.32;;;6.57;;
22837;SDS011;11585;51.450;-0.240;2023-06-14T14:08:52;15.05;;;7.45;;
22837;SDS011;11585;51.450;-0.240;2023-06-14T14:11:29;15.52;;;7.07;;
22837;SDS011;11585;51.450;-0.240;2023-06-14T14:14:04;13.30;;;6.68;;
22837;SDS011;11585;51.450;-0.240;2023-06-14T14:16:41;11.70;;;6.97;;
22837;SDS011;11585;51.450;-0.240;2023-06-14T14:19:26;13.27;;;6.10;;
22837;SDS011;11585;51.450;-0.240;2023-06-14T14:21:58;9.25;;;6.40;;
22837;SDS011;11585;51.450;-0.240;2023-06-14T14:24:27;16.80;;;9.98;;
22837;SDS011;11585;51.450;-0.240;2023-06-14T14:26:55;24.25;;;9.20;;
22837;SDS011;11585;51.450;-0.240;2023-06-14T14:29:25;41.55;;;8.98;;
22837;SDS011;11585;51.450;-0.240;2023-06-14T14:34:40;22.08;;;7.78;;
22837;SDS011;11585;51.450;-0.240;2023-06-14T14:37:09;14.82;;;6.13;;
22837;SDS011;11585;51.450;-0.240;2023-06-14T14:39:43;11.93;;;7.97;;
22837;SDS011;11585;51.450;-0.240;2023-06-14T14:45:06;15.18;;;7.15;;
22837;SDS011;11585;51.450;-0.240;2023-06-14T14:47:35;15.75;;;7.38;;
22837;SDS011;11585;51.450;-0.240;2023-06-14T14:50:08;21.48;;;7.78;;
22837;SDS011;11585;51.450;-0.240;2023-06-14T14:52:37;25.13;;;11.93;;
22837;SDS011;11585;51.450;-0.240;2023-06-14T14:55:08;20.27;;;12.15;;
22837;SDS011;11585;51.450;-0.240;2023-06-14T14:57:33;20.52;;;9.02;;
22837;SDS011;11585;51.450;-0.240;2023-06-14T15:00:01;55.53;;;24.33;;
22837;SDS011;11585;51.450;-0.240;2023-06-14T15:02:29;44.85;;;26.35;;
22837;SDS011;11585;51.450;-0.240;2023-06-14T15:04:54;22.17;;;10.73;;
22837;SDS011;11585;51.450;-0.240;2023-06-14T15:07:25;19.40;;;9.60;;
22837;SDS011;11585;51.450;-0.240;2023-06-14T15:09:54;17.13;;;8.65;;
22837;SDS011;11585;51.450;-0.240;2023-06-14T15:12:20;17.00;;;8.25;;
22837;SDS011;11585;51.450;-0.240;2023-06-14T15:14:49;16.58;;;7.68;;
22837;SDS011;11585;51.450;-0.240;2023-06-14T15:17:17;16.92;;;9.55;;
22837;SDS011;11585;51.450;-0.240;2023-06-14T15:19:43;18.25;;;7.35;;
22837;SDS011;11585;51.450;-0.240;2023-06-14T15:22:10;15.18;;;6.95;;
22837;SDS011;11585;51.450;-0.240;2023-06-14T15:24:35;13.80;;;7.60;;
22837;SDS011;11585;51.450;-0.240;2023-06-14T15:27:01;15.27;;;7.40;;
22837;SDS011;11585;51.450;-0.240;2023-06-14T15:29:27;23.50;;;7.82;;
22837;SDS011;11585;51.450;-0.240;2023-06-14T15:31:53;11.35;;;7.70;;
22837;SDS011;11585;51.450;-0.240;2023-06-14T15:34:20;15.77;;;8.70;;
22837;SDS011;11585;51.450;-0.240;2023-06-14T15:36:46;15.00;;;9.80;;
22837;SDS011;11585;51.450;-0.240;2023-06-14T15:39:11;12.77;;;7.05;;
22837;SDS011;11585;51.450;-0.240;2023-06-14T15:41:37;11.65;;;6.88;;
22837;SDS011;11585;51.450;-0.240;2023-06-14T15:44:03;14.18;;;7.90;;
22837;SDS011;11585;51.450;-0.240;2023-06-14T15:46:28;13.25;;;7.45;;
22837;SDS011;11585;51.450;-0.240;2023-06-14T15:48:54;14.35;;;6.82;;
22837;SDS011;11585;51.450;-0.240;2023-06-14T15:51:20;12.77;;;6.90;;
22837;SDS011;11585;51.450;-0.240;2023-06-14T15:53:46;11.30;;;6.53;;
22837;SDS011;11585;51.450;-0.240;2023-06-14T15:56:11;21.08;;;7.25;;
22837;SDS011;11585;51.450;-0.240;2023-06-14T15:58:37;10.10;;;6.60;;
22837;SDS011;11585;51.450;-0.240;2023-06-14T16:01:02;14.20;;;7.40;;
22837;SDS011;11585;51.450;-0.240;2023-06-14T16:03:30;16.83;;;6.88;;
22837;SDS011;11585;51.450;-0.240;2023-06-14T16:05:55;10.85;;;6.50;;
22837;SDS011;11585;51.450;-0.240;2023-06-14T16:08:21;18.25;;;7.70;;
22837;SDS011;11585;51.450;-0.240;2023-06-14T16:10:47;11.45;;;6.72;;
22837;SDS011;11585;51.450;-0.240;2023-06-14T16:13:13;30.48;;;12.07;;
22837;SDS011;11585;51.450;-0.240;2023-06-14T16:15:38;12.50;;;6.45;;
22837;SDS011;11585;51.450;-0.240;2023-06-14T16:18:04;12.13;;;7.35;;
22837;SDS011;11585;51.450;-0.240;2023-06-14T16:20:29;12.90;;;6.82;;
22837;SDS011;11585;51.450;-0.240;2023-06-14T16:22:55;20.33;;;6.93;;
22837;SDS011;11585;51.450;-0.240;2023-06-14T16:25:20;14.38;;;5.75;;
22837;SDS011;11585;51.450;-0.240;2023-06-14T16:27:46;15.23;;;6.20;;
22837;SDS011;11585;51.450;-0.240;2023-06-14T16:30:12;12.05;;;5.97;;
22837;SDS011;11585;51.450;-0.240;2023-06-14T16:32:38;16.08;;;7.72;;
22837;SDS011;11585;51.450;-0.240;2023-06-14T16:35:04;15.98;;;7.60;;
22837;SDS011;11585;51.450;-0.240;2023-06-14T16:37:29;13.57;;;6.45;;
22837;SDS011;11585;51.450;-0.240;2023-06-14T16:39:55;28.50;;;15.35;;
22837;SDS011;11585;51.450;-0.240;2023-06-14T16:42:23;11.50;;;7.88;;
22837;SDS011;11585;51.450;-0.240;2023-06-14T16:44:48;11.23;;;7.10;;
22837;SDS011;11585;51.450;-0.240;2023-06-14T16:47:14;15.48;;;9.00;;
22837;SDS011;11585;51.450;-0.240;2023-06-14T16:49:39;15.13;;;8.93;;
22837;SDS011;11585;51.450;-0.240;2023-06-14T16:52:07;22.02;;;7.68;;